Time;durP1;ratioP1;P1;durP2;ratioP2;P2;SDS_P1;SDS_P2;PMS_P1;PMS_P2;Temp;Humidity;BMP_temperature;BMP_pressure;BME280_temperature;BME280_humidity;BME280_pressure;Samples;Min_cycle;Max_cycle;Signal;HPM_P1;HPM_P2
2024/04/20 00:00:10;;;;;;;6.70;2.05;;;6.30;81.30;;;;;;5502316;25;20359;-71
2024/04/20 00:02:35;;;;;;;6.03;2.03;;;6.20;82.00;;;;;;5544075;26;20400;-71
2024/04/20 00:05:01;;;;;;;7.40;2.80;;;6.20;82.80;;;;;;5533596;26;20320;-70
2024/04/20 00:07:26;;;;;;;6.23;2.50;;;6.20;84.30;;;;;;5526536;26;20439;-71
2024/04/20 00:09:53;;;;;;;11.30;3.20;;;6.00;84.30;;;;;;5525894;26;20332;-70
2024/04/20 00:12:19;;;;;;;8.20;3.10;;;6.10;84.30;;;;;;5525715;25;20324;-71
2024/04/20 00:14:44;;;;;;;3.70;2.50;;;6.10;84.90;;;;;;5525239;26;20386;-71
2024/04/20 00:17:10;;;;;;;6.80;2.90;;;6.00;84.80;;;;;;5525136;26;20344;-71
2024/04/20 00:19:35;;;;;;;5.60;3.00;;;6.00;85.60;;;;;;5523949;26;20759;-70
2024/04/20 00:22:01;;;;;;;6.87;2.60;;;6.00;85.30;;;;;;5523873;25;20905;-70
2024/04/20 00:24:26;;;;;;;8.30;2.70;;;6.00;85.90;;;;;;5538904;26;20348;-71
2024/04/20 00:26:52;;;;;;;8.00;3.27;;;5.90;86.30;;;;;;5527049;26;20414;-71
2024/04/20 00:29:17;;;;;;;8.90;3.03;;;5.90;86.20;;;;;;5524655;26;20328;-70
2024/04/20 00:31:43;;;;;;;9.57;2.70;;;5.90;86.60;;;;;;5524494;25;20804;-72
2024/04/20 00:34:09;;;;;;;5.40;2.90;;;5.90;86.80;;;;;;5525388;26;20359;-72
2024/04/20 00:36:34;;;;;;;7.13;2.77;;;5.80;87.20;;;;;;5526598;26;20872;-69
2024/04/20 00:39:00;;;;;;;10.33;3.10;;;5.80;87.30;;;;;;5527082;26;20414;-71
2024/04/20 00:41:25;;;;;;;13.32;3.20;;;5.90;88.50;;;;;;5528292;25;20324;-71
2024/04/20 00:43:51;;;;;;;5.95;2.40;;;5.60;89.10;;;;;;5526827;26;20807;-69
2024/04/20 00:46:17;;;;;;;4.80;3.00;;;5.70;88.30;;;;;;5527851;26;20319;-71
2024/04/20 00:48:42;;;;;;;7.47;2.70;;;5.70;88.70;;;;;;5496873;26;20324;-71
2024/04/20 00:51:08;;;;;;;7.07;2.70;;;5.60;88.80;;;;;;5528151;25;20343;-71
2024/04/20 00:53:34;;;;;;;10.40;3.20;;;5.70;90.10;;;;;;5526979;26;20356;-71
2024/04/20 00:56:02;;;;;;;6.32;3.13;;;5.60;89.60;;;;;;5528505;26;20360;-69
2024/04/20 00:58:29;;;;;;;6.40;2.78;;;5.60;89.80;;;;;;5525214;26;20320;-70
2024/04/20 01:00:55;;;;;;;7.78;3.72;;;5.60;90.60;;;;;;5524163;25;20420;-71
2024/04/20 01:03:24;;;;;;;8.13;3.10;;;5.60;90.60;;;;;;5523841;26;20320;-71
2024/04/20 01:05:50;;;;;;;6.03;2.40;;;5.40;91.40;;;;;;5524391;26;20640;-70
2024/04/20 01:08:15;;;;;;;7.33;3.13;;;5.50;92.40;;;;;;5524864;26;20353;-70
2024/04/20 01:10:41;;;;;;;4.35;3.00;;;5.50;91.10;;;;;;5523697;25;20335;-70
2024/04/20 01:13:07;;;;;;;7.55;3.40;;;5.50;91.80;;;;;;5526264;26;20655;-71
2024/04/20 01:15:34;;;;;;;7.47;2.90;;;5.50;92.30;;;;;;5526650;26;20710;-72
2024/04/20 01:18:00;;;;;;;9.48;3.00;;;5.50;92.60;;;;;;5523419;26;20688;-70
2024/04/20 01:20:26;;;;;;;8.05;2.80;;;5.30;92.20;;;;;;5524097;25;20364;-71
2024/04/20 01:22:52;;;;;;;9.73;3.72;;;5.50;93.40;;;;;;5524172;26;20674;-71
2024/04/20 01:25:19;;;;;;;8.70;2.72;;;5.70;91.60;;;;;;5522952;26;20322;-70
2024/04/20 01:27:45;;;;;;;10.25;3.03;;;5.70;90.30;;;;;;5523658;26;20411;-71
2024/04/20 01:30:14;;;;;;;4.60;2.67;;;5.80;91.10;;;;;;5523081;25;20643;-70
2024/04/20 01:32:40;;;;;;;13.23;2.90;;;5.90;88.70;;;;;;5523273;26;20311;-71
2024/04/20 01:35:05;;;;;;;5.30;2.83;;;5.90;88.00;;;;;;5522764;26;20445;-70
2024/04/20 01:37:31;;;;;;;13.70;2.95;;;5.90;88.30;;;;;;5523393;26;20327;-70
2024/04/20 01:39:56;;;;;;;8.57;2.87;;;6.00;87.70;;;;;;5523123;25;20324;-71
2024/04/20 01:42:22;;;;;;;8.30;3.20;;;6.00;87.20;;;;;;5523201;26;20323;-70
2024/04/20 01:44:47;;;;;;;8.00;2.67;;;6.00;86.90;;;;;;5523049;26;20323;-71
2024/04/20 01:47:13;;;;;;;7.00;2.70;;;6.10;86.60;;;;;;5523849;26;20391;-71
2024/04/20 01:49:38;;;;;;;7.83;2.70;;;6.10;86.10;;;;;;5522915;26;20319;-70
2024/04/20 01:52:04;;;;;;;7.43;3.00;;;5.90;85.80;;;;;;5522968;25;20320;-71
2024/04/20 01:54:30;;;;;;;8.07;2.70;;;6.20;86.60;;;;;;5522468;26;20691;-70
2024/04/20 01:56:55;;;;;;;4.33;2.20;;;6.20;83.30;;;;;;5523421;26;20421;-71
2024/04/20 01:59:21;;;;;;;6.85;2.60;;;6.10;82.40;;;;;;5523052;26;20395;-71
2024/04/20 02:01:49;;;;;;;8.32;2.83;;;6.10;82.50;;;;;;5522787;25;20919;-70
2024/04/20 02:04:15;;;;;;;5.07;2.50;;;6.10;83.80;;;;;;5522263;26;20319;-71
2024/04/20 02:06:40;;;;;;;4.38;2.40;;;6.10;83.70;;;;;;5490000;26;20371;-71
2024/04/20 02:09:06;;;;;;;7.43;2.75;;;6.00;86.00;;;;;;5526197;26;20315;-71
2024/04/20 02:11:31;;;;;;;3.95;2.63;;;6.10;83.70;;;;;;5522295;25;20802;-71
2024/04/20 02:13:57;;;;;;;7.32;2.90;;;6.20;83.40;;;;;;5490184;26;20446;-71
2024/04/20 02:16:23;;;;;;;9.18;2.70;;;6.20;83.60;;;;;;5522126;26;20753;-71
2024/04/20 02:18:48;;;;;;;8.20;2.20;;;6.20;82.40;;;;;;5522632;26;20691;-70
2024/04/20 02:21:18;;;;;;;6.93;2.37;;;6.00;82.90;;;;;;5522173;25;20878;-71
2024/04/20 02:23:44;;;;;;;5.85;2.30;;;6.30;82.90;;;;;;5522643;26;20869;-71
2024/04/20 02:26:09;;;;;;;5.57;2.67;;;6.30;80.90;;;;;;5535548;26;20723;-71
2024/04/20 02:28:35;;;;;;;4.22;2.47;;;6.20;81.90;;;;;;5528901;26;20826;-70
2024/04/20 02:31:01;;;;;;;5.50;2.88;;;6.30;83.20;;;;;;5522319;25;20347;-71
2024/04/20 02:33:26;;;;;;;2.70;2.30;;;6.30;81.70;;;;;;5522116;26;20319;-71
2024/04/20 02:35:53;;;;;;;7.00;2.60;;;6.30;79.80;;;;;;5521514;26;20405;-70
2024/04/20 02:38:18;;;;;;;6.63;2.50;;;6.00;82.40;;;;;;5522044;26;20324;-71
2024/04/20 02:40:45;;;;;;;5.17;2.57;;;6.10;83.40;;;;;;5522011;25;20367;-72
2024/04/20 02:43:10;;;;;;;2.60;2.33;;;6.00;82.80;;;;;;5522623;26;20795;-71
2024/04/20 02:45:36;;;;;;;5.50;2.93;;;5.90;83.60;;;;;;5527156;26;20348;-72
2024/04/20 02:48:02;;;;;;;5.00;2.53;;;5.90;85.40;;;;;;5531402;26;20360;-70
2024/04/20 02:50:27;;;;;;;7.20;2.70;;;5.80;86.30;;;;;;5530270;25;20454;-71
2024/04/20 02:52:53;;;;;;;6.57;2.72;;;5.80;86.60;;;;;;5528715;26;20322;-72
2024/04/20 02:55:19;;;;;;;11.77;3.33;;;5.80;86.10;;;;;;5526373;26;20328;-70
2024/04/20 02:57:45;;;;;;;4.73;2.90;;;5.70;86.90;;;;;;5527210;26;20360;-71
2024/04/20 03:00:11;;;;;;;6.43;2.50;;;5.70;88.10;;;;;;5524526;25;20353;-71
2024/04/20 03:02:37;;;;;;;3.75;2.42;;;5.80;89.00;;;;;;5521791;26;20731;-72
2024/04/20 03:05:03;;;;;;;3.92;2.97;;;5.80;87.20;;;;;;5521812;26;20431;-71
2024/04/20 03:07:28;;;;;;;9.25;3.08;;;5.80;87.10;;;;;;5523687;26;20913;-71
2024/04/20 03:09:55;;;;;;;10.13;2.87;;;5.80;87.10;;;;;;5525682;26;20308;-71
2024/04/20 03:12:21;;;;;;;5.17;2.83;;;5.60;88.50;;;;;;5525144;25;20722;-71
2024/04/20 03:14:50;;;;;;;6.17;3.10;;;6.00;87.00;;;;;;5524689;26;20359;-71
2024/04/20 03:17:16;;;;;;;4.82;2.72;;;5.90;87.60;;;;;;5525254;26;20315;-70
2024/04/20 03:19:41;;;;;;;7.07;3.03;;;5.90;85.40;;;;;;5525628;26;20319;-71
2024/04/20 03:22:07;;;;;;;5.20;2.90;;;6.00;84.90;;;;;;5492458;26;20467;-71
2024/04/20 03:24:33;;;;;;;5.03;3.20;;;5.90;84.30;;;;;;5524991;26;20560;-70
2024/04/20 03:26:58;;;;;;;4.80;2.30;;;6.10;85.60;;;;;;5525487;26;20682;-71
2024/04/20 03:29:24;;;;;;;5.00;2.70;;;6.10;83.60;;;;;;5525351;26;20344;-70
2024/04/20 03:31:49;;;;;;;3.17;2.63;;;6.30;86.70;;;;;;5492476;26;20344;-71
2024/04/20 03:34:15;;;;;;;4.28;2.72;;;5.90;85.10;;;;;;5524550;26;20654;-70
2024/04/20 03:36:40;;;;;;;3.78;2.53;;;6.20;83.10;;;;;;5524888;26;20324;-70
2024/04/20 03:39:10;;;;;;;4.53;2.80;;;6.10;83.40;;;;;;5525856;26;20372;-71
2024/04/20 03:41:36;;;;;;;4.40;2.13;;;6.20;83.50;;;;;;5524793;25;20324;-71
2024/04/20 03:44:02;;;;;;;4.77;2.70;;;6.00;82.20;;;;;;5524574;26;20362;-71
2024/04/20 03:46:29;;;;;;;5.33;2.63;;;5.90;85.10;;;;;;5524306;26;20319;-71
2024/04/20 03:48:55;;;;;;;3.53;2.20;;;6.30;83.00;;;;;;5524831;26;20348;-69
2024/04/20 03:51:21;;;;;;;2.70;2.50;;;6.30;88.50;;;;;;5524840;25;20324;-70
2024/04/20 03:53:46;;;;;;;5.93;3.20;;;6.30;87.50;;;;;;5524624;26;20413;-71
2024/04/20 03:56:12;;;;;;;5.78;3.50;;;6.10;89.80;;;;;;5492594;26;20316;-71
2024/04/20 03:58:38;;;;;;;7.57;4.10;;;6.10;93.90;;;;;;5526580;26;20597;-71
2024/04/20 04:01:04;;;;;;;4.90;3.20;;;5.80;92.00;;;;;;5526716;25;20374;-71
2024/04/20 04:03:30;;;;;;;5.38;3.65;;;6.10;95.50;;;;;;5524629;26;20320;-70
2024/04/20 04:05:55;;;;;;;8.90;4.20;;;6.00;93.50;;;;;;5524721;26;20458;-71
2024/04/20 04:08:25;;;;;;;7.60;4.10;;;5.80;99.90;;;;;;5524646;26;20340;-71
2024/04/20 04:10:50;;;;;;;5.63;4.50;;;5.90;99.90;;;;;;5524519;25;20368;-71
2024/04/20 04:13:16;;;;;;;8.03;5.10;;;5.90;99.90;;;;;;5524225;26;20327;-71
2024/04/20 04:15:43;;;;;;;7.65;5.70;;;5.90;99.90;;;;;;5524203;26;20416;-70
2024/04/20 04:18:13;;;;;;;8.30;5.45;;;5.90;99.90;;;;;;5523469;26;20355;-70
2024/04/20 04:20:39;;;;;;;7.13;5.22;;;5.80;98.60;;;;;;5523974;25;20332;-69
2024/04/20 04:23:05;;;;;;;8.52;4.40;;;7.50;99.10;;;;;;5491895;26;20323;-72
2024/04/20 04:25:31;;;;;;;8.83;3.33;;;5.70;99.90;;;;;;5524321;26;20320;-71
2024/04/20 04:27:57;;;;;;;4.95;3.30;;;5.70;93.00;;;;;;5524524;26;20356;-71
2024/04/20 04:30:23;;;;;;;5.53;3.30;;;5.70;96.80;;;;;;5524215;25;20683;-71
2024/04/20 04:32:49;;;;;;;7.78;3.30;;;6.00;99.90;;;;;;5524299;26;20848;-70
2024/04/20 04:35:15;;;;;;;5.30;3.47;;;5.90;99.90;;;;;;5523850;26;20344;-71
2024/04/20 04:37:41;;;;;;;6.77;3.77;;;5.80;99.90;;;;;;5524383;26;20355;-71
2024/04/20 04:40:07;;;;;;;4.93;3.90;;;5.80;99.90;;;;;;5523962;25;20655;-71
2024/04/20 04:42:32;;;;;;;6.07;3.70;;;5.80;99.10;;;;;;5524698;26;20320;-71
2024/04/20 04:45:00;;;;;;;6.97;3.95;;;5.70;99.90;;;;;;5523916;26;20371;-71
2024/04/20 04:47:26;;;;;;;8.88;4.47;;;6.00;99.90;;;;;;5524861;26;20432;-70
2024/04/20 04:49:51;;;;;;;4.77;4.27;;;5.90;99.90;;;;;;5524799;26;20336;-71
2024/04/20 04:52:17;;;;;;;4.30;3.80;;;5.80;99.90;;;;;;5462535;26;1610316;-72
2024/04/20 04:54:43;;;;;;;7.00;3.70;;;5.90;96.50;;;;;;5524567;26;20475;-71
2024/04/20 04:57:09;;;;;;;7.13;3.67;;;6.00;99.90;;;;;;5532250;26;20324;-71
2024/04/20 04:59:35;;;;;;;7.20;3.92;;;;;;;;;;5527135;26;20340;-71
2024/04/20 05:02:01;;;;;;;9.38;3.78;;;5.80;99.90;;;;;;5523549;25;20713;-72
2024/04/20 05:04:27;;;;;;;5.63;4.00;;;6.00;99.90;;;;;;5523592;26;20371;-70
2024/04/20 05:06:53;;;;;;;3.50;3.00;;;6.10;99.90;;;;;;5524248;26;20499;-70
2024/04/20 05:09:18;;;;;;;10.60;3.80;;;6.10;94.00;;;;;;5523596;26;20367;-70
2024/04/20 05:11:44;;;;;;;4.63;3.70;;;6.20;99.80;;;;;;5523864;25;20331;-71
2024/04/20 05:14:10;;;;;;;4.57;3.50;;;6.00;99.90;;;;;;5522388;26;20332;-70
2024/04/20 05:16:35;;;;;;;5.75;3.72;;;6.00;95.70;;;;;;5523814;26;20320;-70
2024/04/20 05:19:03;;;;;;;5.47;3.63;;;6.10;95.40;;;;;;5523717;26;20339;-71
2024/04/20 05:21:29;;;;;;;7.28;4.10;;;6.10;94.30;;;;;;5523873;26;20372;-71
2024/04/20 05:23:55;;;;;;;9.27;4.32;;;6.20;94.90;;;;;;5523633;26;20757;-72
2024/04/20 05:26:23;;;;;;;8.40;3.63;;;6.20;94.30;;;;;;5523975;26;20402;-71
2024/04/20 05:28:49;;;;;;;8.75;4.60;;;6.10;92.30;;;;;;5524896;26;20332;-72
2024/04/20 05:31:14;;;;;;;12.10;4.95;;;6.20;93.10;;;;;;5523504;26;20359;-72
2024/04/20 05:33:40;;;;;;;5.60;4.43;;;6.20;93.70;;;;;;5523452;26;20821;-71
2024/04/20 05:36:06;;;;;;;7.00;4.50;;;6.30;93.30;;;;;;5522748;26;20328;-70
2024/04/20 05:38:31;;;;;;;7.32;4.75;;;6.30;93.40;;;;;;5520600;26;20882;-71
2024/04/20 05:41:05;;;;;;;11.55;4.80;;;6.40;89.80;;;;;;5521366;26;20323;-71
2024/04/20 05:43:31;;;;;;;10.07;4.40;;;6.30;88.20;;;;;;5520602;26;20763;-71
2024/04/20 05:45:56;;;;;;;7.35;4.20;;;6.30;90.30;;;;;;5521827;26;20328;-71
2024/04/20 05:48:22;;;;;;;10.50;4.57;;;6.30;90.60;;;;;;5522014;26;20866;-71
2024/04/20 05:50:47;;;;;;;8.98;4.10;;;6.40;90.80;;;;;;5522733;26;20323;-72
2024/04/20 05:53:13;;;;;;;8.40;3.38;;;6.30;90.80;;;;;;5521395;26;20829;-71
2024/04/20 05:55:39;;;;;;;7.15;3.38;;;6.30;88.80;;;;;;5518886;26;20328;-71
2024/04/20 05:58:05;;;;;;;5.63;3.33;;;6.20;90.40;;;;;;5522772;26;20666;-71
2024/04/20 06:00:31;;;;;;;8.80;3.20;;;6.20;90.50;;;;;;5522403;26;20363;-72
2024/04/20 06:02:56;;;;;;;6.43;2.93;;;6.30;90.10;;;;;;5522910;26;20876;-71
2024/04/20 06:05:22;;;;;;;8.27;2.60;;;6.30;87.90;;;;;;5521966;26;20344;-71
2024/04/20 06:07:47;;;;;;;9.37;2.83;;;6.30;88.60;;;;;;5490271;26;20316;-70
2024/04/20 06:10:13;;;;;;;5.60;3.10;;;6.30;89.10;;;;;;5522327;26;20352;-70
2024/04/20 06:12:39;;;;;;;6.50;3.10;;;6.30;88.70;;;;;;5521605;26;20841;-70
2024/04/20 06:15:05;;;;;;;5.88;3.47;;;6.40;90.80;;;;;;5521741;26;20390;-71
2024/04/20 06:17:31;;;;;;;7.47;3.63;;;6.40;89.30;;;;;;5489013;26;20339;-71
2024/04/20 06:19:56;;;;;;;5.90;2.80;;;6.60;92.20;;;;;;5521788;26;20340;-71
2024/04/20 06:22:22;;;;;;;8.80;2.90;;;6.50;85.30;;;;;;5520922;26;20331;-71
2024/04/20 06:24:52;;;;;;;5.80;3.27;;;6.50;87.20;;;;;;5521550;26;20308;-72
2024/04/20 06:27:18;;;;;;;8.75;2.90;;;6.40;91.10;;;;;;5521019;26;20324;-71
2024/04/20 06:29:44;;;;;;;4.68;2.80;;;6.40;87.80;;;;;;5521222;26;20365;-70
2024/04/20 06:32:09;;;;;;;6.53;2.53;;;6.70;89.50;;;;;;5521167;26;20964;-70
2024/04/20 06:34:35;;;;;;;8.50;2.70;;;6.40;91.10;;;;;;5521094;26;20322;-70
2024/04/20 06:37:00;;;;;;;5.30;2.30;;;6.40;88.50;;;;;;5521385;26;20394;-70
2024/04/20 06:39:27;;;;;;;9.23;3.10;;;6.40;88.60;;;;;;5520956;26;20354;-72
2024/04/20 06:41:54;;;;;;;6.22;2.53;;;6.20;92.90;;;;;;5521320;26;20346;-70
2024/04/20 06:44:20;;;;;;;9.63;2.13;;;6.40;91.30;;;;;;5524616;26;20320;-71
2024/04/20 06:46:45;;;;;;;4.72;2.00;;;6.60;92.10;;;;;;5525328;26;20408;-73
2024/04/20 06:49:13;;;;;;;7.67;2.67;;;6.50;91.10;;;;;;5525032;26;20319;-70
2024/04/20 06:51:38;;;;;;;9.23;2.92;;;6.40;87.20;;;;;;5524250;25;20367;-71
2024/04/20 06:54:04;;;;;;;17.92;3.83;;;6.40;89.20;;;;;;5524147;26;20328;-70
2024/04/20 06:56:29;;;;;;;6.53;2.60;;;6.30;91.90;;;;;;5521034;26;20409;-70
2024/04/20 06:58:55;;;;;;;12.77;3.77;;;6.40;91.20;;;;;;5524292;26;20475;-70
2024/04/20 07:01:21;;;;;;;4.77;3.10;;;6.40;91.80;;;;;;5524078;26;20328;-70
2024/04/20 07:03:46;;;;;;;12.60;4.20;;;6.40;89.70;;;;;;5524275;26;20320;-72
2024/04/20 07:06:12;;;;;;;8.37;3.43;;;6.40;91.60;;;;;;5524043;26;20324;-71
2024/04/20 07:08:37;;;;;;;6.50;3.20;;;6.40;93.30;;;;;;5523979;26;20432;-70
2024/04/20 07:11:05;;;;;;;12.07;4.40;;;6.50;90.30;;;;;;5524045;26;20331;-72
2024/04/20 07:13:34;;;;;;;9.00;3.20;;;6.40;90.60;;;;;;5524530;26;20339;-72
2024/04/20 07:15:59;;;;;;;6.65;3.17;;;6.20;96.00;;;;;;5523987;26;20429;-72
2024/04/20 07:18:25;;;;;;;8.90;3.80;;;6.40;93.00;;;;;;5523975;26;20324;-70
2024/04/20 07:20:51;;;;;;;11.10;4.78;;;6.40;98.40;;;;;;5523853;26;20357;-71
2024/04/20 07:23:16;;;;;;;8.10;4.38;;;6.20;99.90;;;;;;5524399;26;20331;-71
2024/04/20 07:25:43;;;;;;;8.70;3.60;;;6.40;96.60;;;;;;5523933;26;20439;-69
2024/04/20 07:28:09;;;;;;;5.97;3.00;;;6.40;94.50;;;;;;5525014;26;20420;-71
2024/04/20 07:30:34;;;;;;;10.90;3.40;;;6.50;94.00;;;;;;5525485;26;20833;-69
2024/04/20 07:33:00;;;;;;;8.43;2.93;;;6.60;92.30;;;;;;5525854;26;20324;-69
2024/04/20 07:35:25;;;;;;;11.67;3.20;;;6.60;94.30;;;;;;5524574;26;20331;-71
2024/04/20 07:37:51;;;;;;;12.60;5.70;;;6.60;87.70;;;;;;5524590;26;20332;-71
2024/04/20 07:40:17;;;;;;;10.77;5.00;;;6.80;84.60;;;;;;5524579;26;20433;-70
2024/04/20 07:42:42;;;;;;;7.60;4.33;;;7.40;91.50;;;;;;5523379;26;20335;-72
2024/04/20 07:45:08;;;;;;;6.60;4.00;;;6.90;81.90;;;;;;5523248;26;20331;-72
2024/04/20 07:47:33;;;;;;;9.80;4.20;;;6.90;78.60;;;;;;5523524;26;20324;-70
2024/04/20 07:49:59;;;;;;;9.00;4.57;;;7.00;85.60;;;;;;5523684;25;20323;-70
2024/04/20 07:52:24;;;;;;;9.67;3.80;;;7.10;79.30;;;;;;5524117;26;20324;-71
2024/04/20 07:54:50;;;;;;;12.20;5.00;;;7.10;79.10;;;;;;5523195;26;20327;-70
2024/04/20 07:57:16;;;;;;;8.40;5.30;;;7.30;83.90;;;;;;5524256;26;20350;-71
2024/04/20 07:59:42;;;;;;;9.05;3.63;;;7.10;75.90;;;;;;5524329;26;20881;-71
2024/04/20 08:02:07;;;;;;;10.40;4.13;;;7.20;74.30;;;;;;5524878;26;20339;-71
2024/04/20 08:04:33;;;;;;;5.40;2.23;;;7.40;74.90;;;;;;5524135;26;20870;-71
2024/04/20 08:06:58;;;;;;;8.00;2.50;;;7.20;80.90;;;;;;5524533;26;20371;-71
2024/04/20 08:09:24;;;;;;;6.43;2.10;;;7.40;74.80;;;;;;5524890;26;20707;-71
2024/04/20 08:11:49;;;;;;;4.57;2.60;;;7.50;74.30;;;;;;5517141;26;20714;-69
2024/04/20 08:14:15;;;;;;;7.97;3.10;;;8.40;72.30;;;;;;5521038;26;20384;-71
2024/04/20 08:16:41;;;;;;;6.60;4.00;;;7.60;71.40;;;;;;5524087;26;20324;-72
2024/04/20 08:19:06;;;;;;;6.17;3.00;;;7.60;73.90;;;;;;5524529;26;20324;-71
2024/04/20 08:21:32;;;;;;;10.50;3.40;;;7.50;81.20;;;;;;5523948;26;20352;-71
2024/04/20 08:23:57;;;;;;;8.87;3.67;;;7.30;78.90;;;;;;5523989;26;20343;-70
2024/04/20 08:26:23;;;;;;;8.27;3.73;;;7.10;81.30;;;;;;5523957;26;20339;-71
2024/04/20 08:28:48;;;;;;;13.27;5.13;;;6.90;96.60;;;;;;5523867;26;20340;-71
2024/04/20 08:31:14;;;;;;;12.37;4.73;;;7.00;96.90;;;;;;5523586;26;20328;-70
2024/04/20 08:33:39;;;;;;;10.43;3.60;;;7.10;96.80;;;;;;5523689;26;20380;-72
2024/04/20 08:36:05;;;;;;;9.23;3.90;;;7.10;96.70;;;;;;5523294;26;20327;-71
2024/04/20 08:38:31;;;;;;;10.93;3.30;;;7.10;92.70;;;;;;5493746;26;20330;-70
2024/04/20 08:41:00;;;;;;;9.90;2.97;;;7.20;84.40;;;;;;5487345;26;20383;-71
2024/04/20 08:43:28;;;;;;;13.25;3.40;;;7.20;93.30;;;;;;5506619;26;20391;-71
2024/04/20 08:45:57;;;;;;;8.43;3.30;;;7.30;85.80;;;;;;5523843;26;20408;-72
2024/04/20 08:48:25;;;;;;;7.53;3.50;;;7.30;77.80;;;;;;5523283;26;20332;-71
2024/04/20 08:50:53;;;;;;;9.07;3.88;;;7.40;75.30;;;;;;5523895;26;20324;-70
2024/04/20 08:53:19;;;;;;;8.70;3.78;;;;;;;;;;5524117;26;20328;-72
2024/04/20 08:55:49;;;;;;;8.50;3.38;;;7.30;80.20;;;;;;5523466;26;20416;-71
2024/04/20 08:58:15;;;;;;;10.95;4.30;;;7.40;78.70;;;;;;5523919;26;20825;-71
2024/04/20 09:00:42;;;;;;;14.88;4.88;;;7.20;79.80;;;;;;5523670;26;20327;-70
2024/04/20 09:03:09;;;;;;;12.30;5.10;;;7.30;78.80;;;;;;5523143;26;20962;-70
2024/04/20 09:05:37;;;;;;;11.13;5.18;;;7.40;80.00;;;;;;5522252;26;20326;-70
2024/04/20 09:08:05;;;;;;;11.35;5.20;;;7.80;79.80;;;;;;5523782;26;20327;-71
2024/04/20 09:10:30;;;;;;;9.15;3.40;;;8.10;73.70;;;;;;5523578;26;20798;-71
2024/04/20 09:12:57;;;;;;;12.43;3.90;;;8.10;68.70;;;;;;5523892;26;20390;-70
2024/04/20 09:15:27;;;;;;;4.53;2.88;;;8.10;71.20;;;;;;5523873;26;20323;-73
2024/04/20 09:17:54;;;;;;;5.93;2.72;;;8.10;65.70;;;;;;5491173;26;20328;-70
2024/04/20 09:20:19;;;;;;;6.18;2.50;;;8.10;63.80;;;;;;5523504;26;20367;-71
2024/04/20 09:22:45;;;;;;;4.68;1.98;;;7.70;70.40;;;;;;5523325;26;20403;-71
2024/04/20 09:25:10;;;;;;;9.65;2.35;;;8.30;62.80;;;;;;5523351;26;20323;-73
2024/04/20 09:27:36;;;;;;;5.35;1.77;;;8.10;73.70;;;;;;5490823;26;20797;-72
2024/04/20 09:30:03;;;;;;;6.10;2.40;;;7.50;63.40;;;;;;5523108;26;20687;-69
2024/04/20 09:32:31;;;;;;;4.65;1.90;;;8.20;75.30;;;;;;5523305;26;20323;-72
2024/04/20 09:34:57;;;;;;;8.60;3.03;;;7.50;63.10;;;;;;5522936;26;20877;-72
2024/04/20 09:37:22;;;;;;;10.30;3.60;;;8.80;81.30;;;;;;5521997;26;20374;-70
2024/04/20 09:39:48;;;;;;;7.28;3.30;;;8.40;64.60;;;;;;5522682;26;20366;-71
2024/04/20 09:42:17;;;;;;;8.88;3.45;;;8.80;60.20;;;;;;5523271;26;20324;-72
2024/04/20 09:44:43;;;;;;;9.98;4.40;;;8.40;62.50;;;;;;5523530;26;20368;-71
2024/04/20 09:47:11;;;;;;;11.63;3.55;;;8.90;80.90;;;;;;5522727;26;20369;-71
2024/04/20 09:49:40;;;;;;;8.30;3.00;;;9.90;61.30;;;;;;5486209;26;20322;-70
2024/04/20 09:52:39;;;;;;;11.95;2.80;;;9.50;55.20;;;;;;5512275;26;20375;-70
2024/04/20 09:55:06;;;;;;;11.50;2.80;;;9.50;53.90;;;;;;5522580;26;20421;-71
2024/04/20 09:57:39;;;;;;;12.57;3.78;;;9.70;52.10;;;;;;5522691;26;20859;-71
2024/04/20 10:00:08;;;;;;;12.25;2.88;;;10.10;51.20;;;;;;5522494;26;20375;-71
2024/04/20 10:02:34;;;;;;;6.78;2.90;;;9.40;48.40;;;;;;5522476;26;20684;-70
2024/04/20 10:05:01;;;;;;;7.97;3.10;;;9.50;59.50;;;;;;5522379;26;20822;-71
2024/04/20 10:07:32;;;;;;;10.45;2.70;;;10.20;50.20;;;;;;5522307;26;20429;-71
2024/04/20 10:10:01;;;;;;;15.23;3.60;;;10.20;46.10;;;;;;5522488;26;20324;-72
2024/04/20 10:12:31;;;;;;;10.00;3.38;;;10.60;51.20;;;;;;5521893;26;20376;-71
2024/04/20 10:15:00;;;;;;;9.88;3.00;;;10.60;48.10;;;;;;5489865;26;20432;-71
2024/04/20 10:17:26;;;;;;;8.60;2.67;;;10.30;55.50;;;;;;5522520;26;20452;-72
2024/04/20 10:19:52;;;;;;;8.50;2.33;;;10.40;46.80;;;;;;5521929;26;20737;-71
2024/04/20 10:22:22;;;;;;;10.13;3.00;;;10.10;48.20;;;;;;5523632;26;20331;-71
2024/04/20 10:24:52;;;;;;;7.68;2.40;;;10.00;54.60;;;;;;5522612;26;20359;-73
2024/04/20 10:27:29;;;;;;;10.05;2.40;;;9.30;55.30;;;;;;5522251;26;20319;-71
2024/04/20 10:30:14;;;;;;;14.03;3.53;;;9.40;44.70;;;;;;5522061;26;21085;-71
2024/04/20 10:32:39;;;;;;;9.93;2.78;;;10.00;44.80;;;;;;5522353;26;20339;-73
2024/04/20 10:35:06;;;;;;;5.13;2.47;;;10.40;39.80;;;;;;5527159;26;20343;-71
2024/04/20 10:37:32;;;;;;;9.50;2.50;;;10.40;38.10;;;;;;5522160;26;20332;-71
2024/04/20 10:40:08;;;;;;;1.58;1.00;;;9.50;44.80;;;;;;5523253;26;20846;-70
2024/04/20 10:42:35;;;;;;;1.67;0.90;;;7.70;75.90;;;;;;5522870;26;20335;-70
2024/04/20 10:45:06;;;;;;;1.30;0.80;;;6.80;98.80;;;;;;5523573;26;20324;-72
2024/04/20 10:50:22;;;;;;;2.40;1.10;;;6.40;99.90;;;;;;5504205;25;20434;-70
2024/04/20 10:52:47;;;;;;;4.10;1.25;;;6.40;99.90;;;;;;5524759;26;20312;-70
2024/04/20 10:55:14;;;;;;;2.00;1.00;;;6.50;99.90;;;;;;5527569;26;20327;-71
2024/04/20 10:57:39;;;;;;;4.38;1.00;;;6.40;99.90;;;;;;5533116;26;20367;-71
2024/04/20 11:00:07;;;;;;;3.08;1.50;;;6.80;99.90;;;;;;5533002;26;20323;-71
2024/04/20 11:02:32;;;;;;;9.52;2.08;;;6.70;99.90;;;;;;5531498;26;20416;-70
2024/04/20 11:04:58;;;;;;;4.45;1.52;;;7.00;99.90;;;;;;5528054;26;20825;-71
2024/04/20 11:07:24;;;;;;;8.52;1.80;;;7.60;99.90;;;;;;5526371;26;20320;-71
2024/04/20 11:09:49;;;;;;;3.03;1.40;;;7.90;99.90;;;;;;5528254;26;20327;-71
2024/04/20 11:12:17;;;;;;;4.47;1.55;;;7.50;87.00;;;;;;5521689;26;20424;-70
2024/04/20 11:14:43;;;;;;;5.38;1.25;;;7.10;88.60;;;;;;5521848;26;20733;-71
2024/04/20 11:17:08;;;;;;;3.27;1.13;;;6.50;99.90;;;;;;5521382;26;20319;-70
2024/04/20 11:19:38;;;;;;;5.40;1.40;;;6.40;99.90;;;;;;5520921;26;20802;-71
2024/04/20 11:22:04;;;;;;;6.85;1.70;;;6.40;99.90;;;;;;5521559;26;20338;-70
2024/04/20 11:24:30;;;;;;;8.48;1.63;;;6.50;99.90;;;;;;5521020;26;20361;-70
2024/04/20 11:27:07;;;;;;;7.20;1.60;;;6.50;99.90;;;;;;5521158;26;20332;-71
2024/04/20 11:29:33;;;;;;;4.75;1.52;;;6.50;99.90;;;;;;5523938;26;20345;-71
2024/04/20 11:32:01;;;;;;;4.72;1.20;;;6.60;99.90;;;;;;5492636;26;20332;-70
2024/04/20 11:34:27;;;;;;;4.97;1.30;;;6.60;99.90;;;;;;5524658;26;20825;-71
2024/04/20 11:36:53;;;;;;;6.53;2.03;;;6.90;99.90;;;;;;5525170;26;20360;-71
2024/04/20 11:39:19;;;;;;;4.57;1.35;;;6.90;99.90;;;;;;5524998;26;20320;-70
2024/04/20 11:41:45;;;;;;;7.90;1.80;;;7.20;99.90;;;;;;5524919;26;20415;-70
2024/04/20 11:44:11;;;;;;;4.60;1.90;;;7.40;99.90;;;;;;5520244;26;20412;-75
2024/04/20 11:46:40;;;;;;;6.17;1.83;;;7.80;99.90;;;;;;5505928;26;20332;-72
2024/04/20 11:49:13;;;;;;;7.35;2.13;;;7.90;96.70;;;;;;5501280;26;20361;-69
2024/04/20 11:54:25;;;;;;;7.50;2.10;;;8.10;96.90;;;;;;5487210;26;20353;-71
2024/04/20 11:56:53;;;;;;;6.55;2.00;;;8.30;86.20;;;;;;5487747;26;20376;-70
2024/04/20 11:59:19;;;;;;;6.68;1.70;;;8.30;86.70;;;;;;5487420;26;20377;-70
2024/04/20 12:01:45;;;;;;;7.05;2.00;;;8.20;77.70;;;;;;5518310;25;20421;-70
2024/04/20 12:04:11;;;;;;;7.13;1.60;;;8.40;68.10;;;;;;5524654;26;20367;-71
2024/04/20 12:06:41;;;;;;;5.65;1.50;;;8.50;69.50;;;;;;5525558;26;20331;-70
2024/04/20 12:09:07;;;;;;;3.20;1.23;;;8.60;58.70;;;;;;5525414;26;20329;-71
2024/04/20 12:11:32;;;;;;;11.03;1.40;;;8.70;54.00;;;;;;5524266;25;20770;-70
2024/04/20 12:13:58;;;;;;;6.67;1.60;;;9.00;54.60;;;;;;5524679;26;20426;-71
2024/04/20 12:16:26;;;;;;;6.50;1.30;;;9.40;60.80;;;;;;5523532;26;20359;-72
2024/04/20 12:18:52;;;;;;;8.80;1.77;;;9.90;48.20;;;;;;5524203;26;20458;-71
2024/04/20 12:21:18;;;;;;;6.95;1.50;;;10.20;53.90;;;;;;5524224;25;20338;-71
2024/04/20 12:23:44;;;;;;;8.50;1.77;;;10.00;55.80;;;;;;5524821;26;20473;-71
2024/04/20 12:26:10;;;;;;;2.95;1.00;;;9.70;54.30;;;;;;5525868;26;20405;-72
2024/04/20 12:28:36;;;;;;;3.90;1.20;;;9.80;60.20;;;;;;5526809;26;20323;-74
2024/04/20 12:31:04;;;;;;;5.97;1.15;;;;;;;;;;5525799;26;20759;-73
2024/04/20 12:33:30;;;;;;;5.10;1.40;;;10.10;63.30;;;;;;5524746;26;20360;-72
2024/04/20 12:35:56;;;;;;;1.75;1.00;;;10.80;48.00;;;;;;5523831;26;20683;-71
2024/04/20 12:38:23;;;;;;;5.80;1.25;;;11.00;46.90;;;;;;5524301;26;20414;-71
2024/04/20 12:40:49;;;;;;;5.90;1.03;;;;;;;;;;5522320;26;20396;-71
2024/04/20 12:43:15;;;;;;;4.75;1.45;;;;;;;;;;5523513;26;20324;-71
2024/04/20 12:45:41;;;;;;;2.10;0.80;;;;;;;;;;5523109;26;20723;-71
2024/04/20 12:48:07;;;;;;;5.07;1.20;;;;;;;;;;5523243;26;20786;-71
2024/04/20 12:50:33;;;;;;;3.92;1.15;;;10.90;37.10;;;;;;5523684;25;20347;-72
2024/04/20 12:52:58;;;;;;;5.87;1.00;;;10.50;42.50;;;;;;5529322;26;20371;-75
2024/04/20 12:55:24;;;;;;;4.20;1.20;;;11.40;28.00;;;;;;5490720;26;20336;-71
2024/04/20 12:57:49;;;;;;;3.97;1.00;;;11.40;37.50;;;;;;5523326;26;20328;-71